Time;durP1;ratioP1;P1;durP2;ratioP2;P2;SDS_P1;SDS_P2;PMS_P1;PMS_P2;Temp;Humidity;BMP_temperature;BMP_pressure;BME280_temperature;BME280_humidity;BME280_pressure;Samples;Min_cycle;Max_cycle;Signal;HPM_P1;HPM_P2
2022/03/15 00:00:09;;;;;;;0.50;0.50;;;;;;;5.63;68.70;97997.28;29373;350;63004;-63
2022/03/15 00:00:40;;;;;;;0.60;0.60;;;;;;;5.62;68.67;97995.66;29373;295;63009;-62
2022/03/15 00:01:13;;;;;;;0.50;0.50;;;;;;;5.63;68.71;98000.81;29373;305;63004;-63
2022/03/15 00:01:45;;;;;;;0.60;0.60;;;;;;;5.64;68.66;97999.75;29371;359;64013;-64
2022/03/15 00:02:16;;;;;;;0.50;0.50;;;;;;;5.63;68.65;98003.50;29371;342;64008;-63
2022/03/15 00:02:49;;;;;;;0.50;0.50;;;;;;;5.65;69.04;97995.19;29373;225;63009;-64
2022/03/15 00:03:22;;;;;;;0.50;0.50;;;;;;;5.66;68.63;98002.22;29394;199;64009;-63
2022/03/15 00:03:53;;;;;;;0.50;0.50;;;;;;;5.67;68.65;98001.16;29373;315;63009;-63
2022/03/15 00:04:25;;;;;;;0.50;0.50;;;;;;;5.67;68.48;98004.66;29373;218;63005;-63
2022/03/15 00:04:56;;;;;;;0.60;0.60;;;;;;;5.67;68.71;97998.47;29373;266;63009;-64
2022/03/15 00:05:27;;;;;;;0.50;0.50;;;;;;;5.65;68.63;97990.63;29371;300;64009;-64
2022/03/15 00:05:59;;;;;;;0.50;0.50;;;;;;;5.67;68.59;97993.09;29373;228;63009;-62
2022/03/15 00:06:32;;;;;;;2.20;2.12;;;;;;;5.66;68.66;97986.06;29373;202;63005;-63
2022/03/15 00:07:04;;;;;;;0.50;0.50;;;;;;;5.66;68.81;97986.06;29373;202;63009;-63
2022/03/15 00:07:35;;;;;;;0.50;0.50;;;;;;;5.66;68.86;97988.75;29373;310;63004;-63
2022/03/15 00:08:09;;;;;;;0.50;0.50;;;;;;;5.63;69.28;97983.81;29373;312;63009;-63
2022/03/15 00:08:41;;;;;;;0.80;0.80;;;;;;;5.58;69.87;97978.31;29371;241;64009;-64
2022/03/15 00:09:13;;;;;;;0.60;0.60;;;;;;;5.53;69.82;97975.53;29371;210;64013;-63
2022/03/15 00:09:45;;;;;;;0.60;0.60;;;;;;;5.50;69.69;97973.31;29373;301;63004;-64
2022/03/15 00:10:19;;;;;;;0.60;0.60;;;;;;;5.47;70.49;97971.09;29373;202;63008;-64
2022/03/15 00:10:54;;;;;;;0.60;0.60;;;;;;;5.41;70.71;97964.75;29371;225;64009;-62
2022/03/15 00:11:27;;;;;;;0.60;0.60;;;;;;;5.37;70.80;97967.09;29373;288;63009;-63
2022/03/15 00:12:00;;;;;;;0.60;0.60;;;;;;;5.36;70.26;97960.06;29373;327;63005;-62
2022/03/15 00:12:31;;;;;;;0.50;0.50;;;;;;;5.39;70.03;97969.56;29373;242;63009;-63
2022/03/15 00:13:03;;;;;;;0.60;0.60;;;;;;;5.39;70.01;97970.38;29371;294;64009;-64
2022/03/15 00:13:38;;;;;;;0.60;0.60;;;;;;;5.41;70.06;97967.44;29373;234;63009;-64
2022/03/15 00:14:14;;;;;;;0.50;0.50;;;;;;;5.43;69.94;97975.28;29373;283;63005;-63
2022/03/15 00:14:47;;;;;;;0.60;0.60;;;;;;;5.45;70.30;97975.88;29371;299;64013;-63
2022/03/15 00:15:18;;;;;;;0.50;0.50;;;;;;;5.44;70.01;97972.38;29373;276;63010;-63
2022/03/15 00:15:49;;;;;;;0.50;0.50;;;;;;;5.45;69.96;97971.31;29373;202;63009;-62
2022/03/15 00:16:21;;;;;;;0.60;0.60;;;;;;;5.46;70.07;97972.13;29373;198;63004;-63
2022/03/15 00:16:52;;;;;;;0.50;0.50;;;;;;;5.48;69.84;97972.72;29373;344;63009;-63
2022/03/15 00:17:24;;;;;;;0.50;0.50;;;;;;;5.50;69.70;97976.00;29373;338;63004;-63
2022/03/15 00:17:55;;;;;;;0.50;0.50;;;;;;;5.51;69.68;97977.66;29373;286;63009;-64
2022/03/15 00:18:30;;;;;;;0.60;0.60;;;;;;;5.52;69.54;97981.97;29373;220;63011;-62
2022/03/15 00:19:03;;;;;;;0.50;0.50;;;;;;;5.51;69.88;97975.78;29371;260;64014;-63
2022/03/15 00:19:34;;;;;;;0.50;0.50;;;;;;;5.51;70.81;97980.34;29373;251;63005;-62
2022/03/15 00:20:14;;;;;;;0.50;0.50;;;;;;;5.47;70.86;97971.09;29373;332;63009;-63
2022/03/15 00:20:45;;;;;;;0.60;0.60;;;;;;;5.48;70.11;97983.50;29395;212;63005;-63
2022/03/15 00:21:20;;;;;;;0.60;0.60;;;;;;;5.47;70.36;97973.78;29395;334;63009;-63
2022/03/15 00:21:53;;;;;;;0.60;0.60;;;;;;;5.47;69.98;97973.78;29371;218;64009;-63
2022/03/15 00:22:25;;;;;;;0.60;0.60;;;;;;;5.47;70.20;97982.69;29371;305;64013;-62
2022/03/15 00:23:00;;;;;;;0.50;0.50;;;;;;;5.48;70.28;97978.09;29373;311;63004;-63
2022/03/15 00:23:32;;;;;;;0.50;0.50;;;;;;;5.47;70.55;97971.09;29373;285;63009;-63
2022/03/15 00:24:07;;;;;;;0.55;0.55;;;;;;;5.44;70.47;97971.56;29373;299;63004;-62
2022/03/15 00:24:39;;;;;;;0.60;0.60;;;;;;;5.44;70.16;97976.94;29373;279;63025;-63
2022/03/15 00:25:15;;;;;;;0.57;0.57;;;;;;;5.44;70.41;97975.06;29373;202;63004;-64
2022/03/15 00:25:46;;;;;;;0.60;0.60;;;;;;;5.45;70.38;97984.78;29373;266;63009;-63
2022/03/15 00:26:18;;;;;;;0.50;0.50;;;;;;;5.46;70.34;97980.22;29373;335;63005;-64
2022/03/15 00:26:50;;;;;;;0.50;0.50;;;;;;;5.49;70.31;97977.06;29373;299;63009;-62
2022/03/15 00:27:22;;;;;;;0.50;0.50;;;;;;;5.49;70.31;97977.88;29373;220;63005;-62
2022/03/15 00:27:55;;;;;;;0.50;0.50;;;;;;;5.51;70.11;97977.66;29371;275;64013;-63
2022/03/15 00:28:28;;;;;;;0.50;0.50;;;;;;;5.51;69.78;97978.47;29373;317;63005;-63
2022/03/15 00:28:59;;;;;;;0.60;0.60;;;;;;;5.52;70.03;97981.97;29371;293;64028;-64
2022/03/15 00:29:31;;;;;;;0.50;0.50;;;;;;;5.52;69.65;97984.66;29373;263;63004;-63
2022/03/15 00:30:06;;;;;;;0.50;0.50;;;;;;;5.53;69.79;97978.22;29373;301;63009;-63
2022/03/15 00:30:37;;;;;;;0.52;0.52;;;;;;;5.54;69.95;97982.56;29373;263;63004;-63
2022/03/15 00:31:12;;;;;;;0.60;0.60;;;;;;;5.52;70.74;97981.97;29373;197;63009;-63
2022/03/15 00:31:44;;;;;;;0.60;0.60;;;;;;;5.49;70.60;97979.75;29373;232;63004;-63
2022/03/15 00:32:19;;;;;;;0.50;0.50;;;;;;;5.46;70.52;97980.22;29373;259;63009;-63
2022/03/15 00:32:51;;;;;;;0.50;0.50;;;;;;;5.44;70.90;97983.13;29373;251;63005;-62
2022/03/15 00:33:24;;;;;;;0.50;0.50;;;;;;;5.42;70.50;97979.03;29373;286;63009;-64
2022/03/15 00:33:55;;;;;;;0.50;0.50;;;;;;;5.41;70.38;97972.00;29373;266;63005;-63
2022/03/15 00:34:27;;;;;;;0.60;0.60;;;;;;;5.42;70.34;97984.41;29371;322;64013;-62
2022/03/15 00:34:58;;;;;;;0.50;0.50;;;;;;;5.43;70.12;97980.69;29373;270;63005;-63
2022/03/15 00:35:51;;;;;;;0.50;0.50;;;;;;;5.44;70.11;97985.00;29373;238;63009;-64
2022/03/15 00:36:41;;;;;;;0.60;0.60;;;;;;;5.42;70.30;97985.25;29373;272;63009;-63
2022/03/15 00:37:48;;;;;;;0.50;0.50;;;;;;;5.44;70.04;97976.94;29373;268;63004;-63
2022/03/15 00:38:41;;;;;;;0.50;0.50;;;;;;;5.46;69.97;97980.22;29373;336;63009;-64
2022/03/15 00:39:13;;;;;;;0.55;0.55;;;;;;;5.46;69.89;97974.81;29393;337;64008;-62
2022/03/15 00:39:46;;;;;;;0.60;0.60;;;;;;;5.48;69.64;97972.72;29395;197;63009;-65
2022/03/15 00:40:20;;;;;;;0.60;0.60;;;;;;;5.49;69.79;97971.66;29373;261;63005;-64
2022/03/15 00:40:53;;;;;;;0.60;0.60;;;;;;;5.50;69.56;97976.00;29373;326;63009;-63
2022/03/15 00:41:25;;;;;;;0.60;0.60;;;;;;;5.51;69.52;97973.06;29373;352;63000;-62
2022/03/15 00:41:56;;;;;;;0.50;0.50;;;;;;;5.50;69.61;97968.75;29373;259;63009;-63
2022/03/15 00:42:28;;;;;;;0.50;0.50;;;;;;;5.51;69.70;97964.19;29373;339;63007;-63
2022/03/15 00:42:59;;;;;;;0.50;0.50;;;;;;;5.52;69.21;97963.94;29371;353;64013;-63
2022/03/15 00:43:31;;;;;;;0.52;0.52;;;;;;;5.53;69.56;97970.16;29373;298;63005;-63
2022/03/15 00:44:03;;;;;;;0.60;0.60;;;;;;;5.53;69.51;97964.78;29373;306;63009;-63
2022/03/15 00:44:35;;;;;;;0.50;0.50;;;;;;;5.53;69.43;97965.59;29373;347;63004;-62
2022/03/15 00:45:07;;;;;;;0.50;0.50;;;;;;;5.53;69.24;97970.16;29373;263;63004;-62
2022/03/15 00:45:39;;;;;;;0.50;0.50;;;;;;;5.53;69.35;97970.16;29373;327;63011;-64
2022/03/15 00:46:10;;;;;;;0.50;0.50;;;;;;;5.54;69.14;97969.09;29373;199;63009;-63
2022/03/15 00:46:41;;;;;;;0.60;0.60;;;;;;;5.55;69.33;97962.62;29373;197;63004;-64
2022/03/15 00:47:13;;;;;;;0.55;0.55;;;;;;;5.55;69.21;97968.03;29373;218;63008;-63
2022/03/15 00:47:44;;;;;;;0.50;0.50;;;;;;;5.54;69.52;97964.53;29373;222;63005;-63
2022/03/15 00:48:16;;;;;;;0.50;0.50;;;;;;;5.53;69.74;97964.78;29371;333;64014;-63
2022/03/15 00:48:48;;;;;;;0.50;0.50;;;;;;;5.51;69.76;97958.81;29373;379;63005;-64
2022/03/15 00:49:22;;;;;;;0.50;0.50;;;;;;;5.50;69.78;97957.16;29371;245;64013;-64
2022/03/15 00:49:54;;;;;;;0.62;0.62;;;;;;;5.50;69.80;97954.47;29373;196;63005;-64
2022/03/15 00:50:32;;;;;;;0.50;0.50;;;;;;;5.49;69.45;97953.66;29371;320;64013;-63
2022/03/15 00:51:03;;;;;;;0.50;0.50;;;;;;;5.49;69.69;97952.81;29373;241;63005;-64
2022/03/15 00:51:34;;;;;;;0.50;0.50;;;;;;;5.47;69.49;97954.94;29373;253;63009;-63
2022/03/15 00:52:06;;;;;;;0.50;0.50;;;;;;;5.46;69.89;97948.72;29373;297;63007;-63
2022/03/15 00:52:38;;;;;;;0.50;0.50;;;;;;;5.47;70.11;97960.31;29373;260;63009;-63
2022/03/15 00:53:10;;;;;;;0.50;0.50;;;;;;;5.47;70.06;97954.94;29373;220;63004;-63
2022/03/15 00:53:41;;;;;;;0.50;0.50;;;;;;;5.45;70.14;97951.66;29373;202;63013;-63
2022/03/15 00:54:12;;;;;;;0.50;0.50;;;;;;;5.46;70.12;97954.12;29373;334;63004;-62
2022/03/15 00:54:43;;;;;;;0.50;0.50;;;;;;;5.48;69.86;97959.25;29371;258;64013;-62
2022/03/15 00:55:15;;;;;;;0.60;0.60;;;;;;;5.48;69.96;97956.56;29373;262;63005;-63
2022/03/15 00:55:49;;;;;;;0.50;0.50;;;;;;;5.49;69.63;97963.59;29373;293;63009;-63
2022/03/15 00:56:28;;;;;;;0.50;0.50;;;;;;;5.47;70.39;97954.94;29373;247;63005;-63
2022/03/15 00:57:01;;;;;;;0.60;0.60;;;;;;;5.45;70.34;97951.66;29373;312;63009;-64
2022/03/15 00:57:33;;;;;;;0.60;0.60;;;;;;;5.44;69.98;97952.72;29373;254;63005;-63
2022/03/15 00:58:05;;;;;;;0.50;0.50;;;;;;;5.42;69.93;97955.63;29373;212;63009;-64
2022/03/15 00:58:36;;;;;;;0.50;0.50;;;;;;;5.42;70.29;97952.13;29373;214;63005;-63
2022/03/15 00:59:09;;;;;;;0.50;0.50;;;;;;;5.41;69.99;97950.47;29373;299;63009;-61
2022/03/15 00:59:41;;;;;;;0.50;0.50;;;;;;;5.39;70.35;97948.03;29373;286;63004;-64
2022/03/15 01:00:16;;;;;;;0.60;0.60;;;;;;;5.39;70.27;97948.03;29371;323;64013;-62
2022/03/15 01:00:48;;;;;;;0.50;0.50;;;;;;;5.35;71.07;97953.06;29371;233;64009;-63
2022/03/15 01:01:19;;;;;;;0.50;0.50;;;;;;;5.33;70.54;97952.47;29373;359;63013;-63
2022/03/15 01:01:50;;;;;;;0.52;0.52;;;;;;;5.32;70.63;97940.06;29373;227;63004;-63
2022/03/15 01:02:21;;;;;;;0.57;0.57;;;;;;;5.33;70.63;97952.47;29373;233;63009;-62
2022/03/15 01:02:53;;;;;;;0.50;0.50;;;;;;;5.33;70.83;97949.78;29373;291;63005;-64
2022/03/15 01:03:24;;;;;;;0.50;0.50;;;;;;;5.31;70.42;97941.09;29373;199;63009;-65
2022/03/15 01:03:58;;;;;;;0.60;0.60;;;;;;;5.32;70.72;97947.31;29373;246;63005;-64
2022/03/15 01:04:29;;;;;;;1.02;1.02;;;;;;;5.33;70.71;97952.47;29373;349;63009;-62
2022/03/15 01:05:01;;;;;;;0.50;0.50;;;;;;;5.33;70.68;97960.53;29373;297;63005;-63
2022/03/15 01:05:33;;;;;;;0.50;0.50;;;;;;;5.32;70.96;97948.13;29371;271;64013;-63
2022/03/15 01:06:04;;;;;;;0.50;0.50;;;;;;;5.31;70.76;97951.06;29373;321;63005;-63
2022/03/15 01:06:37;;;;;;;0.50;0.50;;;;;;;5.30;70.74;97955.63;29373;202;63020;-63
2022/03/15 01:07:11;;;;;;;0.50;0.50;;;;;;;5.29;70.84;97951.28;29373;238;63004;-62
2022/03/15 01:07:46;;;;;;;0.50;0.50;;;;;;;5.29;70.40;97953.97;29373;202;63009;-63
2022/03/15 01:08:18;;;;;;;0.60;0.60;;;;;;;5.30;70.57;97949.41;29373;207;63004;-63
2022/03/15 01:08:52;;;;;;;0.60;0.60;;;;;;;5.30;70.44;97949.41;29373;199;63009;-62
2022/03/15 01:09:23;;;;;;;0.60;0.60;;;;;;;5.31;70.41;97951.06;29373;266;63004;-62
2022/03/15 01:09:54;;;;;;;0.50;0.50;;;;;;;5.30;70.43;97950.25;29373;286;63009;-64
2022/03/15 01:10:26;;;;;;;0.50;0.50;;;;;;;5.31;70.47;97946.50;29373;222;63005;-63
2022/03/15 01:10:57;;;;;;;0.60;0.60;;;;;;;5.32;70.72;97950.00;29371;282;64014;-63
2022/03/15 01:11:30;;;;;;;0.50;0.50;;;;;;;5.33;70.33;97949.78;29373;279;63005;-63
2022/03/15 01:12:01;;;;;;;0.50;0.50;;;;;;;5.33;70.21;97944.38;29373;340;63009;-63
2022/03/15 01:12:33;;;;;;;0.60;0.60;;;;;;;5.33;70.40;97949.78;29373;232;63005;-63
2022/03/15 01:13:04;;;;;;;0.50;0.50;;;;;;;5.33;70.10;97944.38;29373;266;63009;-63
2022/03/15 01:13:35;;;;;;;0.50;0.50;;;;;;;5.34;70.13;97951.41;29373;236;63007;-63
2022/03/15 01:14:06;;;;;;;0.60;0.60;;;;;;;5.34;69.91;97945.22;29373;218;63009;-63
2022/03/15 01:14:38;;;;;;;0.50;0.50;;;;;;;5.35;69.94;97947.66;29373;357;63004;-63
2022/03/15 01:15:10;;;;;;;0.60;0.60;;;;;;;5.36;70.48;97943.94;29372;280;64009;-63
2022/03/15 01:15:44;;;;;;;0.52;0.52;;;;;;;5.34;70.65;97940.66;29371;352;64002;-63
2022/03/15 01:16:15;;;;;;;0.50;0.50;;;;;;;5.38;70.10;97935.63;29373;310;63008;-62
2022/03/15 01:16:53;;;;;;;0.50;0.50;;;;;;;5.41;70.13;97935.16;29371;305;64008;-63
2022/03/15 01:17:25;;;;;;;0.50;0.50;;;;;;;5.43;69.73;97938.44;29373;196;63008;-63
2022/03/15 01:17:56;;;;;;;0.50;0.50;;;;;;;5.43;70.32;97934.91;29373;266;63005;-62
2022/03/15 01:18:31;;;;;;;0.57;0.57;;;;;;;5.38;70.42;97936.44;29373;202;63009;-63
2022/03/15 01:19:06;;;;;;;0.50;0.50;;;;;;;5.37;70.43;97928.59;29373;240;63005;-64
2022/03/15 01:19:37;;;;;;;0.50;0.50;;;;;;;5.37;70.09;97929.41;29373;320;63009;-63
2022/03/15 01:20:10;;;;;;;0.55;0.55;;;;;;;5.36;70.95;97933.16;29373;314;63011;-64
2022/03/15 01:20:43;;;;;;;0.50;0.50;;;;;;;5.34;70.41;97929.88;29373;332;63009;-64
2022/03/15 01:21:14;;;;;;;0.57;0.57;;;;;;;5.31;70.38;97924.97;29373;287;63004;-63
2022/03/15 01:21:46;;;;;;;0.60;0.60;;;;;;;5.31;70.36;97924.97;29371;262;64013;-62
2022/03/15 01:22:17;;;;;;;0.50;0.50;;;;;;;5.31;70.55;97930.34;29373;223;63004;-65
2022/03/15 01:22:48;;;;;;;0.60;0.60;;;;;;;5.31;70.32;97930.34;29373;198;63009;-64
2022/03/15 01:23:19;;;;;;;0.60;0.60;;;;;;;5.32;70.31;97931.16;29373;311;63004;-63
2022/03/15 01:23:51;;;;;;;0.50;0.50;;;;;;;5.30;70.43;97934.09;29373;341;63008;-63
2022/03/15 01:24:23;;;;;;;0.50;0.50;;;;;;;5.31;70.89;97938.41;29373;236;63005;-63
2022/03/15 01:24:55;;;;;;;0.50;0.50;;;;;;;5.31;70.80;97929.53;29373;229;63009;-63
2022/03/15 01:25:26;;;;;;;0.70;0.70;;;;;;;5.30;70.97;97927.87;29373;199;63005;-63
2022/03/15 01:25:58;;;;;;;0.50;0.50;;;;;;;5.29;70.74;97932.44;29373;203;63009;-64
2022/03/15 01:26:29;;;;;;;0.50;0.50;;;;;;;5.30;70.61;97933.28;29373;235;63005;-64
2022/03/15 01:27:00;;;;;;;0.60;0.60;;;;;;;5.31;70.70;97934.91;29371;199;64013;-63
2022/03/15 01:27:31;;;;;;;0.50;0.50;;;;;;;5.31;70.84;97932.22;29373;232;63008;-63
2022/03/15 01:28:04;;;;;;;0.50;0.50;;;;;;;5.32;70.51;97937.38;29373;302;63009;-63
2022/03/15 01:28:40;;;;;;;0.50;0.50;;;;;;;5.35;70.62;97936.09;29371;196;64009;-63
2022/03/15 01:29:11;;;;;;;0.60;0.60;;;;;;;5.35;70.61;97934.22;29373;197;63009;-64
2022/03/15 01:29:43;;;;;;;0.50;0.50;;;;;;;5.35;70.33;97931.53;29373;229;63004;-64
2022/03/15 01:30:14;;;;;;;0.60;0.60;;;;;;;5.33;70.70;97933.63;29373;272;63015;-64
2022/03/15 01:30:45;;;;;;;0.50;0.50;;;;;;;5.31;71.18;97930.34;29373;305;63004;-63
2022/03/15 01:31:16;;;;;;;0.50;0.50;;;;;;;5.28;71.29;97933.50;29373;350;63010;-63
2022/03/15 01:31:49;;;;;;;1.08;1.08;;;;;;;5.27;70.76;97929.16;29373;226;63005;-63
2022/03/15 01:32:22;;;;;;;0.50;0.50;;;;;;;5.27;70.77;97934.56;29373;324;63009;-63
2022/03/15 01:32:53;;;;;;;0.50;0.50;;;;;;;5.27;70.86;97929.16;29371;255;64009;-63
2022/03/15 01:33:24;;;;;;;0.60;0.60;;;;;;;5.26;70.83;97924.84;29373;340;63005;-63
2022/03/15 01:33:56;;;;;;;0.60;0.60;;;;;;;5.28;70.99;97935.37;29373;285;63012;-63
2022/03/15 01:34:28;;;;;;;0.50;0.50;;;;;;;5.29;70.75;97927.06;29373;202;63009;-63
2022/03/15 01:34:59;;;;;;;0.50;0.50;;;;;;;5.30;70.67;97922.50;29373;202;63005;-63
2022/03/15 01:35:30;;;;;;;0.50;0.50;;;;;;;5.30;70.81;97923.31;29373;262;63009;-63
2022/03/15 01:36:02;;;;;;;0.50;0.50;;;;;;;5.31;70.90;97919.59;29373;197;63004;-64
2022/03/15 01:36:34;;;;;;;0.50;0.50;;;;;;;5.31;70.74;97919.59;29373;202;63004;-63
2022/03/15 01:37:07;;;;;;;0.55;0.55;;;;;;;5.32;70.64;97921.22;29371;295;64009;-64
2022/03/15 01:37:38;;;;;;;0.50;0.50;;;;;;;5.31;71.42;97926.84;29373;346;63004;-62
2022/03/15 01:38:09;;;;;;;0.65;0.65;;;;;;;5.28;71.50;97921.91;29373;355;63007;-64
2022/03/15 01:38:40;;;;;;;0.70;0.70;;;;;;;5.23;71.74;97921.78;29373;250;63008;-63
2022/03/15 01:39:12;;;;;;;0.55;0.55;;;;;;;5.19;72.06;97924.16;29373;236;63004;-63
2022/03/15 01:39:43;;;;;;;0.50;0.50;;;;;;;5.16;71.67;97919.25;29373;265;63009;-63
2022/03/15 01:40:15;;;;;;;0.50;0.50;;;;;;;5.16;71.68;97924.62;29373;454;63005;-63
2022/03/15 01:40:46;;;;;;;0.50;0.50;;;;;;;5.17;71.28;97920.06;29373;345;63009;-63
2022/03/15 01:41:18;;;;;;;0.50;0.50;;;;;;;5.17;71.43;97918.19;29373;286;63005;-62
2022/03/15 01:41:50;;;;;;;0.50;0.50;;;;;;;5.18;71.61;97914.44;29371;300;64013;-63
2022/03/15 01:42:21;;;;;;;0.50;0.50;;;;;;;5.17;71.96;97918.19;29373;204;63005;-65
2022/03/15 01:42:52;;;;;;;0.60;0.60;;;;;;;5.17;71.28;97912.00;29373;198;63016;-64
2022/03/15 01:43:24;;;;;;;0.60;0.60;;;;;;;5.18;71.45;97914.44;29373;196;63005;-62
2022/03/15 01:43:55;;;;;;;0.60;0.60;;;;;;;5.19;71.27;97920.66;29371;365;64001;-63
2022/03/15 01:44:29;;;;;;;0.60;0.60;;;;;;;5.19;71.69;97905.31;29373;197;63004;-63
2022/03/15 01:45:12;;;;;;;0.50;0.50;;;;;;;5.22;71.36;97914.78;29373;299;63009;-62
2022/03/15 01:45:44;;;;;;;0.50;0.50;;;;;;;5.22;71.35;97910.22;29373;256;63004;-62
2022/03/15 01:46:19;;;;;;;0.50;0.50;;;;;;;5.22;71.36;97910.22;29373;218;63008;-65
2022/03/15 01:46:53;;;;;;;0.60;0.60;;;;;;;5.23;71.17;97903.78;29373;224;63005;-65
2022/03/15 01:47:33;;;;;;;0.50;0.50;;;;;;;5.23;71.04;97903.78;29373;358;63009;-62
2022/03/15 01:48:07;;;;;;;0.60;0.60;;;;;;;5.24;71.23;97908.09;29395;222;63013;-65
2022/03/15 01:48:39;;;;;;;0.60;0.60;;;;;;;5.25;70.86;97898.97;29394;260;64013;-63
2022/03/15 01:49:13;;;;;;;0.50;0.50;;;;;;;5.26;71.12;97902.50;29373;311;63016;-63
2022/03/15 01:49:45;;;;;;;0.50;0.50;;;;;;;5.27;70.97;97893.38;29373;196;63017;-62
2022/03/15 01:50:17;;;;;;;0.50;0.50;;;;;;;5.27;70.99;97898.75;29373;236;63005;-63
2022/03/15 01:50:49;;;;;;;0.50;0.50;;;;;;;5.28;70.74;97903.09;29373;286;63015;-63
2022/03/15 01:51:21;;;;;;;0.50;0.50;;;;;;;5.29;70.80;97896.66;29373;320;63004;-63
2022/03/15 01:51:56;;;;;;;0.50;0.50;;;;;;;5.29;70.77;97900.16;29373;250;63009;-63
2022/03/15 01:52:27;;;;;;;0.57;0.57;;;;;;;5.30;70.69;97898.28;29373;278;63004;-62
2022/03/15 01:53:01;;;;;;;0.50;0.50;;;;;;;5.31;70.73;97895.38;29373;215;63009;-64
2022/03/15 01:53:32;;;;;;;0.50;0.50;;;;;;;5.31;70.49;97898.06;29371;202;64008;-63
2022/03/15 01:54:04;;;;;;;0.50;0.50;;;;;;;5.31;70.47;97892.66;29373;264;63008;-63
2022/03/15 01:54:38;;;;;;;0.50;0.50;;;;;;;5.30;70.69;97901.78;29373;355;63005;-63
2022/03/15 01:55:09;;;;;;;0.50;0.50;;;;;;;5.31;70.50;97899.94;29373;203;63009;-63
2022/03/15 01:55:41;;;;;;;0.50;0.50;;;;;;;5.32;70.75;97898.88;29373;266;63005;-63
2022/03/15 01:56:12;;;;;;;0.50;0.50;;;;;;;5.32;70.43;97905.06;29373;204;63009;-63
2022/03/15 01:56:43;;;;;;;0.50;0.50;;;;;;;5.32;70.52;97897.00;29373;308;63005;-64
2022/03/15 01:57:16;;;;;;;0.60;0.60;;;;;;;5.32;70.94;97904.25;29373;267;63018;-64
2022/03/15 01:57:47;;;;;;;0.60;0.60;;;;;;;5.29;70.88;97908.22;29371;360;64009;-63
2022/03/15 01:58:19;;;;;;;0.50;0.50;;;;;;;5.29;70.73;97899.34;29373;199;63009;-63
2022/03/15 01:58:51;;;;;;;0.60;0.60;;;;;;;5.29;70.77;97900.16;29373;338;63004;-63
2022/03/15 01:59:22;;;;;;;0.82;0.80;;;;;;;5.32;70.87;97904.25;29373;351;63009;-62
2022/03/15 01:59:54;;;;;;;0.60;0.60;;;;;;;5.33;70.75;97895.13;29373;213;63004;-63
2022/03/15 02:00:25;;;;;;;0.50;0.50;;;;;;;5.34;70.35;97894.06;29371;315;64003;-63
2022/03/15 02:00:56;;;;;;;0.50;0.50;;;;;;;5.34;70.67;97902.16;29373;264;63004;-63
2022/03/15 02:01:27;;;;;;;0.50;0.50;;;;;;;5.35;70.41;97904.59;29373;202;63004;-63
2022/03/15 02:01:58;;;;;;;0.50;0.50;;;;;;;5.34;70.29;97902.97;29373;376;63005;-63
2022/03/15 02:02:30;;;;;;;0.50;0.50;;;;;;;5.34;70.57;97902.97;29373;255;63009;-63
2022/03/15 02:03:03;;;;;;;0.50;0.50;;;;;;;5.35;70.33;97893.84;29373;204;63005;-63
2022/03/15 02:03:35;;;;;;;0.60;0.60;;;;;;;5.35;70.54;97903.78;29373;229;63009;-62
2022/03/15 02:04:07;;;;;;;0.50;0.50;;;;;;;5.33;70.80;97892.44;29373;231;63005;-62
2022/03/15 02:04:38;;;;;;;0.50;0.50;;;;;;;5.33;70.37;97900.50;29373;235;63009;-62
2022/03/15 02:05:11;;;;;;;0.60;0.60;;;;;;;5.33;70.43;97895.13;29371;253;64009;-62
2022/03/15 02:05:43;;;;;;;0.60;0.60;;;;;;;5.32;70.48;97897.00;29373;203;63009;-63
2022/03/15 02:06:14;;;;;;;0.50;0.50;;;;;;;5.33;70.73;97901.31;29371;321;64009;-64
2022/03/15 02:06:46;;;;;;;0.50;0.50;;;;;;;5.34;70.86;97902.16;29373;338;63009;-63
2022/03/15 02:07:19;;;;;;;0.55;0.55;;;;;;;5.32;70.51;97894.31;29373;332;63008;-63
2022/03/15 02:07:51;;;;;;;0.50;0.50;;;;;;;5.32;70.91;97896.19;29373;256;63009;-63
2022/03/15 02:08:23;;;;;;;0.50;0.50;;;;;;;5.33;70.90;97900.50;29373;235;63004;-63
2022/03/15 02:08:55;;;;;;;0.50;0.50;;;;;;;5.33;70.77;97901.31;29373;196;63008;-64
2022/03/15 02:09:26;;;;;;;0.50;0.50;;;;;;;5.33;70.49;97901.31;29373;337;63004;-63
2022/03/15 02:09:57;;;;;;;0.50;0.50;;;;;;;5.35;70.73;97903.78;29373;241;63009;-64
2022/03/15 02:10:30;;;;;;;0.60;0.60;;;;;;;5.37;70.64;97901.69;29371;197;64009;-62
2022/03/15 02:11:01;;;;;;;0.50;0.50;;;;;;;5.39;70.49;97900.41;29373;202;63009;-63
2022/03/15 02:11:35;;;;;;;0.50;0.50;;;;;;;5.39;70.53;97896.87;29373;232;63005;-64
2022/03/15 02:12:08;;;;;;;0.50;0.50;;;;;;;5.38;70.28;97898.75;29373;220;63009;-63
2022/03/15 02:12:39;;;;;;;0.60;0.60;;;;;;;5.38;70.55;97903.31;29373;327;63005;-62
2022/03/15 02:13:12;;;;;;;0.50;0.50;;;;;;;5.38;70.28;97897.94;29373;224;63009;-62
2022/03/15 02:13:45;;;;;;;0.57;0.57;;;;;;;5.38;70.50;97900.62;29373;354;63004;-63
2022/03/15 02:14:16;;;;;;;0.60;0.60;;;;;;;5.38;70.60;97898.75;29371;238;64013;-64
2022/03/15 02:14:47;;;;;;;0.50;0.50;;;;;;;5.39;70.58;97899.56;29371;345;64009;-62
2022/03/15 02:15:23;;;;;;;0.60;0.60;;;;;;;5.39;70.36;97895.00;29373;210;63009;-62
2022/03/15 02:15:56;;;;;;;0.50;0.50;;;;;;;5.39;70.42;97899.56;29373;271;63004;-62
2022/03/15 02:16:27;;;;;;;0.60;0.60;;;;;;;5.39;70.37;97896.87;29371;246;64013;-63
2022/03/15 02:16:58;;;;;;;0.50;0.50;;;;;;;5.39;70.58;97904.97;29373;277;63010;-63
2022/03/15 02:17:30;;;;;;;0.50;0.50;;;;;;;5.38;70.77;97904.13;29373;373;63009;-63
2022/03/15 02:18:01;;;;;;;0.50;0.50;;;;;;;5.38;71.02;97901.44;29373;340;63008;-64
2022/03/15 02:18:35;;;;;;;0.50;0.50;;;;;;;5.35;70.66;97901.91;29373;326;63009;-62
2022/03/15 02:19:07;;;;;;;0.50;0.50;;;;;;;5.35;71.06;97893.84;29371;326;64009;-63
2022/03/15 02:19:39;;;;;;;0.50;0.50;;;;;;;5.34;70.86;97900.28;29373;206;63009;-63
2022/03/15 02:20:13;;;;;;;0.50;0.50;;;;;;;5.33;71.28;97893.25;29371;275;64009;-62
2022/03/15 02:20:44;;;;;;;0.50;0.50;;;;;;;5.32;71.18;97904.25;29373;225;63009;-62
2022/03/15 02:21:15;;;;;;;0.75;0.75;;;;;;;5.32;71.33;97899.69;29373;198;63004;-63
2022/03/15 02:21:47;;;;;;;0.60;0.60;;;;;;;5.33;71.04;97900.50;29373;356;63009;-62
2022/03/15 02:22:19;;;;;;;0.60;0.60;;;;;;;5.34;71.20;97902.97;29371;301;64009;-63
2022/03/15 02:22:50;;;;;;;0.60;0.60;;;;;;;5.33;70.96;97901.31;29373;254;63009;-64
2022/03/15 02:23:21;;;;;;;0.60;0.60;;;;;;;5.33;70.95;97895.94;29373;218;63018;-63
2022/03/15 02:23:53;;;;;;;0.50;0.50;;;;;;;5.33;70.98;97898.63;29373;229;63008;-63
2022/03/15 02:24:25;;;;;;;0.60;0.60;;;;;;;5.32;71.19;97899.69;29373;197;63004;-63
2022/03/15 02:24:56;;;;;;;0.50;0.50;;;;;;;5.30;71.31;97899.09;29373;327;63009;-65
2022/03/15 02:25:27;;;;;;;0.60;0.60;;;;;;;5.30;71.45;97896.41;29373;249;63008;-63
2022/03/15 02:25:59;;;;;;;0.50;0.50;;;;;;;5.29;71.28;97889.41;29373;338;63009;-63
2022/03/15 02:26:30;;;;;;;0.50;0.50;;;;;;;5.27;72.22;97896.87;29373;202;63005;-64
2022/03/15 02:27:02;;;;;;;0.50;0.50;;;;;;;5.26;71.86;97895.25;29373;297;63009;-64
2022/03/15 02:27:34;;;;;;;0.52;0.52;;;;;;;5.24;71.89;97891.97;29371;263;64009;-63
2022/03/15 02:28:05;;;;;;;0.50;0.50;;;;;;;5.22;71.94;97894.06;29373;279;63009;-64
2022/03/15 02:28:36;;;;;;;0.50;0.50;;;;;;;5.21;71.92;97900.50;29373;229;63004;-62
2022/03/15 02:29:08;;;;;;;0.50;0.50;;;;;;;5.22;71.61;97890.56;29373;212;63009;-63
2022/03/15 02:29:39;;;;;;;0.50;0.50;;;;;;;5.22;71.94;97904.84;29373;301;63004;-63
2022/03/15 02:30:12;;;;;;;0.50;0.50;;;;;;;5.22;71.66;97887.88;29373;226;63009;-64
2022/03/15 02:30:46;;;;;;;0.50;0.50;;;;;;;5.22;71.79;97890.56;29373;196;63004;-63
2022/03/15 02:31:19;;;;;;;0.50;0.50;;;;;;;5.22;71.41;97891.38;29373;313;63009;-63
2022/03/15 02:31:51;;;;;;;0.50;0.50;;;;;;;5.22;71.83;97888.69;29373;199;63011;-62
2022/03/15 02:32:22;;;;;;;0.50;0.50;;;;;;;5.23;71.67;97892.19;29371;213;64014;-63
2022/03/15 02:32:55;;;;;;;0.60;0.60;;;;;;;5.21;71.71;97889.75;29372;231;63005;-64
2022/03/15 02:33:26;;;;;;;0.93;0.93;;;;;;;5.22;71.67;97893.25;29373;203;63009;-63
2022/03/15 02:33:57;;;;;;;0.50;0.50;;;;;;;5.22;71.88;97888.69;29373;289;63005;-62
2022/03/15 02:34:28;;;;;;;0.50;0.50;;;;;;;5.20;72.33;97890.78;29373;349;63009;-63
2022/03/15 02:34:59;;;;;;;0.50;0.50;;;;;;;5.18;72.10;97882.16;29373;380;63005;-63
2022/03/15 02:35:31;;;;;;;0.60;0.60;;;;;;;5.18;71.97;97890.22;29373;206;63009;-63
2022/03/15 02:36:03;;;;;;;0.57;0.57;;;;;;;5.17;72.17;97885.91;29373;289;63004;-63
2022/03/15 02:36:35;;;;;;;0.50;0.50;;;;;;;5.16;72.08;97883.44;29373;199;63009;-64
2022/03/15 02:37:06;;;;;;;0.50;0.50;;;;;;;5.17;71.96;97880.53;29371;346;64009;-62